createdAt,value
2023-04-24T00:00:47.249Z,12.51
2023-04-24T00:02:01.396Z,12.48
2023-04-24T00:03:04.322Z,12.44
2023-04-24T00:04:07.684Z,12.42
2023-04-24T00:05:09.586Z,12.41
2023-04-24T00:06:11.281Z,12.38
2023-04-24T00:07:13.414Z,12.38
2023-04-24T00:08:15.091Z,12.36
2023-04-24T00:09:16.803Z,12.34
2023-04-24T00:10:19.246Z,12.31
2023-04-24T00:11:20.918Z,12.30
2023-04-24T00:12:38.623Z,12.29
2023-04-24T00:13:40.812Z,12.26
2023-04-24T00:14:42.284Z,12.24
2023-04-24T00:15:43.867Z,12.23
2023-04-24T00:16:45.557Z,12.22
2023-04-24T00:17:47.998Z,12.21
2023-04-24T00:18:49.605Z,12.21
2023-04-24T00:19:51.664Z,12.22
2023-04-24T00:20:53.224Z,12.22
2023-04-24T00:21:55.071Z,12.19
2023-04-24T00:22:56.534Z,12.17
2023-04-24T00:23:58.012Z,12.14
2023-04-24T00:24:59.694Z,12.12
2023-04-24T00:26:01.166Z,12.10
2023-04-24T00:27:02.953Z,12.11
2023-04-24T00:28:04.753Z,12.12
2023-04-24T00:29:06.245Z,12.12
2023-04-24T00:30:08.216Z,12.11
2023-04-24T00:31:09.797Z,12.10
2023-04-24T00:32:11.883Z,12.10
2023-04-24T00:33:13.525Z,12.08
2023-04-24T00:34:14.977Z,12.07
2023-04-24T00:35:16.786Z,12.06
2023-04-24T00:36:20.852Z,12.05
2023-04-24T00:37:22.432Z,12.05
2023-04-24T00:38:25.010Z,12.05
2023-04-24T00:39:26.579Z,12.03
2023-04-24T00:40:28.672Z,12.00
2023-04-24T00:41:30.760Z,11.96
2023-04-24T00:42:32.457Z,11.97
2023-04-24T00:43:34.117Z,11.95
2023-04-24T00:44:35.760Z,11.93
2023-04-24T00:45:37.416Z,11.91
2023-04-24T00:46:39.107Z,11.89
2023-04-24T00:47:42.120Z,11.86
2023-04-24T00:48:44.213Z,11.83
2023-04-24T00:49:46.280Z,11.82
2023-04-24T00:50:47.838Z,11.79
2023-04-24T00:51:51.487Z,11.78
2023-04-24T00:52:53.235Z,11.77
2023-04-24T00:53:55.007Z,11.77
2023-04-24T00:54:56.487Z,11.75
2023-04-24T00:55:58.265Z,11.74
2023-04-24T00:57:00.805Z,11.74
2023-04-24T00:58:02.521Z,11.77
2023-04-24T00:59:04.889Z,11.78
2023-04-24T01:00:12.023Z,11.77
2023-04-24T01:01:14.526Z,11.76
2023-04-24T01:02:16.383Z,11.75
2023-04-24T01:03:18.848Z,11.74
2023-04-24T01:04:21.295Z,11.70
2023-04-24T01:05:23.403Z,11.68
2023-04-24T01:06:28.297Z,11.67
2023-04-24T01:07:30.095Z,11.68
2023-04-24T01:08:31.732Z,11.68
2023-04-24T01:09:33.459Z,11.70
2023-04-24T01:10:36.782Z,11.71
2023-04-24T01:11:38.440Z,11.73
2023-04-24T01:12:40.373Z,11.74
2023-04-24T01:13:41.974Z,11.75
2023-04-24T01:14:45.582Z,11.72
2023-04-24T01:15:47.808Z,11.69
2023-04-24T01:16:49.399Z,11.67
2023-04-24T01:17:51.344Z,11.64
2023-04-24T01:18:52.937Z,11.61
2023-04-24T01:19:57.015Z,11.57
2023-04-24T01:21:06.661Z,11.54
2023-04-24T01:22:12.107Z,11.52
2023-04-24T01:23:13.895Z,11.50
2023-04-24T01:24:15.691Z,11.50
2023-04-24T01:25:17.527Z,11.48
2023-04-24T01:26:20.525Z,11.46
2023-04-24T01:27:22.262Z,11.45
2023-04-24T01:28:24.424Z,11.43
2023-04-24T01:29:25.940Z,11.43
2023-04-24T01:32:00.255Z,11.44
2023-04-24T01:33:02.824Z,11.42
2023-04-24T01:34:04.568Z,11.41
2023-04-24T01:35:07.056Z,11.43
2023-04-24T01:36:11.184Z,11.42
2023-04-24T01:37:12.831Z,11.39
2023-04-24T01:38:14.794Z,11.36
2023-04-24T01:39:17.074Z,11.35
2023-04-24T01:40:18.625Z,11.35
2023-04-24T01:41:20.755Z,11.35
2023-04-24T01:42:22.860Z,11.37
2023-04-24T01:43:24.863Z,11.39
2023-04-24T01:44:27.009Z,11.39
2023-04-24T01:45:28.604Z,11.39
2023-04-24T01:46:31.884Z,11.39
2023-04-24T01:47:34.068Z,11.39
2023-04-24T01:48:35.873Z,11.39
2023-04-24T01:49:41.775Z,11.39
2023-04-24T01:50:43.404Z,11.37
2023-04-24T01:51:47.241Z,11.35
2023-04-24T01:52:49.033Z,11.33
2023-04-24T01:53:50.901Z,11.32
2023-04-24T01:54:52.826Z,11.33
2023-04-24T01:55:54.436Z,11.36
2023-04-24T01:56:56.089Z,11.38
2023-04-24T01:58:00.019Z,11.40
2023-04-24T01:59:03.624Z,11.41
2023-04-24T02:00:07.471Z,11.42
2023-04-24T02:01:26.689Z,11.40
2023-04-24T02:02:29.271Z,11.40
2023-04-24T02:03:32.297Z,11.38
2023-04-24T02:04:33.912Z,11.37
2023-04-24T02:05:35.443Z,11.36
2023-04-24T02:06:38.460Z,11.32
2023-04-24T02:07:40.235Z,11.31
2023-04-24T02:08:42.051Z,11.31
2023-04-24T02:09:43.678Z,11.30
2023-04-24T02:10:46.300Z,11.31
2023-04-24T02:11:47.951Z,11.32
2023-04-24T02:12:49.425Z,11.32
2023-04-24T02:13:51.850Z,11.31
2023-04-24T02:14:53.383Z,11.29
2023-04-24T02:15:54.814Z,11.26
2023-04-24T02:16:56.234Z,11.21
2023-04-24T02:17:58.193Z,11.18
2023-04-24T02:18:59.880Z,11.19
2023-04-24T02:20:01.337Z,11.20
2023-04-24T02:21:03.025Z,11.20
2023-04-24T02:22:04.734Z,11.18
2023-04-24T02:23:06.262Z,11.18
2023-04-24T02:24:07.704Z,11.19
2023-04-24T02:25:09.503Z,11.20
2023-04-24T02:26:11.406Z,11.21
2023-04-24T02:27:13.120Z,11.22
2023-04-24T02:28:14.774Z,11.20
2023-04-24T02:29:16.351Z,11.17
2023-04-24T02:30:17.869Z,11.13
2023-04-24T02:31:20.530Z,11.10
2023-04-24T02:32:23.216Z,11.06
2023-04-24T02:33:24.923Z,11.05
2023-04-24T02:34:26.597Z,11.05
2023-04-24T02:35:28.119Z,11.03
2023-04-24T02:36:30.666Z,11.03
2023-04-24T02:37:32.471Z,11.01
2023-04-24T02:38:34.069Z,10.98
2023-04-24T02:39:35.681Z,10.96
2023-04-24T02:40:37.159Z,10.95
2023-04-24T02:41:38.581Z,10.92
2023-04-24T02:42:40.106Z,10.92
2023-04-24T02:43:41.750Z,10.91
2023-04-24T02:44:43.265Z,10.90
2023-04-24T02:45:44.975Z,10.88
2023-04-24T02:46:46.453Z,10.90
2023-04-24T02:47:47.926Z,10.91
2023-04-24T02:48:49.355Z,10.96
2023-04-24T02:49:50.893Z,10.98
2023-04-24T02:50:52.371Z,10.98
2023-04-24T02:51:53.987Z,10.98
2023-04-24T02:52:55.460Z,10.97
2023-04-24T02:53:57.030Z,10.98
2023-04-24T02:54:58.521Z,10.96
2023-04-24T02:56:00.148Z,10.97
2023-04-24T02:57:01.778Z,10.97
2023-04-24T02:58:03.495Z,10.98
2023-04-24T02:59:05.127Z,10.96
2023-04-24T03:00:07.594Z,10.92
2023-04-24T03:01:10.512Z,10.89
2023-04-24T03:02:12.246Z,10.87
2023-04-24T03:03:14.437Z,10.86
2023-04-24T03:04:17.077Z,10.84
2023-04-24T03:05:18.901Z,10.83
2023-04-24T03:06:21.300Z,10.83
2023-04-24T03:07:24.463Z,10.84
2023-04-24T03:08:25.948Z,10.83
2023-04-24T03:09:27.511Z,10.84
2023-04-24T03:10:29.277Z,10.83
2023-04-24T03:11:30.713Z,10.80
2023-04-24T03:12:32.755Z,10.78
2023-04-24T03:13:34.516Z,10.76
2023-04-24T03:14:35.974Z,10.75
2023-04-24T03:15:37.639Z,10.74
2023-04-24T03:16:39.146Z,10.72
2023-04-24T03:17:42.111Z,10.71
2023-04-24T03:18:43.690Z,10.73
2023-04-24T03:19:45.734Z,10.74
2023-04-24T03:20:47.964Z,10.74
2023-04-24T03:21:50.364Z,10.71
2023-04-24T03:22:52.650Z,10.71
2023-04-24T03:23:55.387Z,10.72
2023-04-24T03:24:57.070Z,10.72
2023-04-24T03:25:58.761Z,10.71
2023-04-24T03:27:00.598Z,10.70
2023-04-24T03:28:25.495Z,10.68
2023-04-24T03:29:34.899Z,10.66
2023-04-24T03:30:37.400Z,10.66
2023-04-24T03:31:39.863Z,10.66
2023-04-24T03:32:41.422Z,10.63
2023-04-24T03:33:44.360Z,10.61
2023-04-24T03:34:46.000Z,10.59
2023-04-24T03:35:49.127Z,10.55
2023-04-24T03:36:50.774Z,10.54
2023-04-24T03:37:52.305Z,10.53
2023-04-24T03:39:14.579Z,10.50
2023-04-24T03:40:22.746Z,10.49
2023-04-24T03:41:24.628Z,10.50
2023-04-24T03:42:30.658Z,10.51
2023-04-24T03:43:33.754Z,10.53
2023-04-24T03:44:36.498Z,10.54
2023-04-24T03:45:38.108Z,10.54
2023-04-24T03:46:39.808Z,10.54
2023-04-24T03:47:41.987Z,10.54
2023-04-24T03:48:43.594Z,10.54
2023-04-24T03:49:45.482Z,10.56
2023-04-24T03:50:47.090Z,10.57
2023-04-24T03:51:48.624Z,10.57
2023-04-24T03:52:53.724Z,10.58
2023-04-24T03:54:07.613Z,10.59
2023-04-24T03:55:13.172Z,10.58
2023-04-24T03:56:18.310Z,10.56
2023-04-24T03:57:19.859Z,10.56
2023-04-24T03:58:31.699Z,10.54
2023-04-24T03:59:33.170Z,10.52
2023-04-24T04:00:48.036Z,10.51
2023-04-24T04:02:18.996Z,10.50
2023-04-24T04:03:21.236Z,10.51
2023-04-24T04:04:23.953Z,10.53
2023-04-24T04:05:25.930Z,10.54
2023-04-24T04:06:27.656Z,10.55
2023-04-24T04:07:30.352Z,10.58
2023-04-24T04:08:32.048Z,10.60
2023-04-24T04:09:34.355Z,10.63
2023-04-24T04:10:36.055Z,10.64
2023-04-24T04:11:39.948Z,10.63
2023-04-24T04:12:41.417Z,10.61
2023-04-24T04:13:43.612Z,10.60
2023-04-24T04:14:45.140Z,10.59
2023-04-24T04:15:46.809Z,10.59
2023-04-24T04:16:48.404Z,10.61
2023-04-24T04:17:50.083Z,10.60
2023-04-24T04:18:51.559Z,10.57
2023-04-24T04:19:53.176Z,10.55
2023-04-24T04:20:54.757Z,10.54
2023-04-24T04:21:56.508Z,10.55
2023-04-24T04:23:08.961Z,10.53
2023-04-24T04:24:21.105Z,10.51
2023-04-24T04:25:23.453Z,10.49
2023-04-24T04:26:25.856Z,10.47
2023-04-24T04:27:35.613Z,10.48
2023-04-24T04:28:40.397Z,10.53
2023-04-24T04:29:42.627Z,10.56
2023-04-24T04:30:45.922Z,10.58
2023-04-24T04:31:47.538Z,10.58
2023-04-24T04:32:49.939Z,10.58
2023-04-24T04:33:51.531Z,10.56
2023-04-24T04:34:54.037Z,10.57
2023-04-24T04:35:57.033Z,10.58
2023-04-24T04:37:02.306Z,10.57
2023-04-24T04:38:43.226Z,10.51
2023-04-24T04:39:56.192Z,10.48
2023-04-24T04:41:00.027Z,10.48
2023-04-24T04:42:04.122Z,10.46
2023-04-24T04:43:13.696Z,10.44
2023-04-24T04:44:18.866Z,10.43
2023-04-24T04:45:20.956Z,10.43
2023-04-24T04:46:42.867Z,10.42
2023-04-24T04:47:52.996Z,10.41
2023-04-24T04:48:54.792Z,10.41
2023-04-24T04:49:56.309Z,10.43
2023-04-24T04:50:59.885Z,10.44
2023-04-24T04:52:01.925Z,10.47
2023-04-24T04:53:03.916Z,10.50
2023-04-24T04:54:08.742Z,10.53
2023-04-24T04:55:13.573Z,10.54
2023-04-24T04:56:38.042Z,10.56
2023-04-24T04:57:40.314Z,10.59
2023-04-24T04:58:41.773Z,10.60
2023-04-24T04:59:46.758Z,10.63
2023-04-24T05:00:53.576Z,10.66
2023-04-24T05:02:02.002Z,10.69
2023-04-24T05:03:19.042Z,10.72
2023-04-24T05:04:23.243Z,10.73
2023-04-24T05:05:24.976Z,10.75
2023-04-24T05:06:26.490Z,10.77
2023-04-24T05:07:28.115Z,10.80
2023-04-24T05:08:30.161Z,10.83
2023-04-24T05:09:31.623Z,10.84
2023-04-24T05:10:37.317Z,10.85
2023-04-24T05:11:39.009Z,10.85
2023-04-24T05:12:40.670Z,10.87
2023-04-24T05:13:42.658Z,10.90
2023-04-24T05:14:48.546Z,10.95
2023-04-24T05:15:50.256Z,10.98
2023-04-24T05:16:51.825Z,10.98
2023-04-24T05:17:56.779Z,10.97
2023-04-24T05:18:59.618Z,10.98
2023-04-24T05:20:05.725Z,11.00
2023-04-24T05:21:08.206Z,11.01
2023-04-24T05:22:11.873Z,11.04
2023-04-24T05:23:20.527Z,11.08
2023-04-24T05:24:24.534Z,11.11
2023-04-24T05:25:52.445Z,11.14
2023-04-24T05:26:55.860Z,11.11
2023-04-24T05:28:00.740Z,11.11
2023-04-24T05:29:03.012Z,11.11
2023-04-24T05:30:05.296Z,11.10
2023-04-24T05:31:06.777Z,11.09
2023-04-24T05:32:08.150Z,11.09
2023-04-24T05:33:10.208Z,11.11
2023-04-24T05:34:11.619Z,11.16
2023-04-24T05:35:16.206Z,11.21
2023-04-24T05:36:17.981Z,11.25
2023-04-24T05:37:19.699Z,11.26
2023-04-24T05:38:21.805Z,11.28
2023-04-24T05:39:25.275Z,11.31
2023-04-24T05:40:26.872Z,11.31
2023-04-24T05:41:28.479Z,11.32
2023-04-24T05:42:29.969Z,11.33
2023-04-24T05:43:32.430Z,11.34
2023-04-24T05:44:34.131Z,11.34
2023-04-24T05:45:36.489Z,11.36
2023-04-24T05:46:38.078Z,11.36
2023-04-24T05:47:39.938Z,11.36
2023-04-24T05:48:41.463Z,11.34
2023-04-24T05:49:43.192Z,11.34
2023-04-24T05:50:45.097Z,11.37
2023-04-24T05:51:47.165Z,11.39
2023-04-24T05:52:49.461Z,11.41
2023-04-24T05:53:59.449Z,11.42
2023-04-24T05:55:01.113Z,11.41
2023-04-24T05:56:04.067Z,11.41
2023-04-24T05:57:08.053Z,11.41
2023-04-24T05:58:22.616Z,11.42
2023-04-24T05:59:24.647Z,11.43
2023-04-24T06:00:27.153Z,11.46
2023-04-24T06:01:33.985Z,11.50
2023-04-24T06:02:42.140Z,11.50
2023-04-24T06:03:45.859Z,11.49
2023-04-24T06:04:48.253Z,11.48
2023-04-24T06:05:51.602Z,11.48
2023-04-24T06:06:56.203Z,11.47
2023-04-24T06:07:57.789Z,11.48
2023-04-24T06:09:02.511Z,11.52
2023-04-24T06:10:04.613Z,11.53
2023-04-24T06:11:11.222Z,11.54
2023-04-24T06:12:13.807Z,11.55
2023-04-24T06:13:32.040Z,11.60
2023-04-24T06:14:55.789Z,11.65
2023-04-24T06:16:03.065Z,11.69
2023-04-24T06:17:09.566Z,11.74
2023-04-24T06:18:15.457Z,11.77
2023-04-24T06:19:17.076Z,11.80
2023-04-24T06:20:18.823Z,11.86
2023-04-24T06:21:20.647Z,11.94
2023-04-24T06:22:22.137Z,12.03
2023-04-24T06:23:23.873Z,12.12
2023-04-24T06:24:28.823Z,12.21
2023-04-24T06:25:30.931Z,12.29
2023-04-24T06:26:32.642Z,12.36
2023-04-24T06:27:35.609Z,12.42
2023-04-24T06:28:37.933Z,12.45
2023-04-24T06:29:39.384Z,12.49
2023-04-24T06:30:41.990Z,12.53
2023-04-24T06:31:43.404Z,12.53
2023-04-24T06:32:45.723Z,12.52
2023-04-24T06:33:49.060Z,12.53
2023-04-24T06:34:53.885Z,12.56
2023-04-24T06:35:55.458Z,12.57
2023-04-24T06:36:57.124Z,12.60
2023-04-24T06:37:58.567Z,12.63
2023-04-24T06:39:00.305Z,12.65
2023-04-24T06:40:01.715Z,12.67
2023-04-24T06:41:05.330Z,12.66
2023-04-24T06:42:06.899Z,12.63
2023-04-24T06:43:09.951Z,12.62
2023-04-24T06:44:11.637Z,12.63
2023-04-24T06:45:13.054Z,12.65
2023-04-24T06:46:14.738Z,12.65
2023-04-24T06:47:16.251Z,12.64
2023-04-24T06:48:17.687Z,12.65
2023-04-24T06:49:19.567Z,12.68
2023-04-24T06:50:21.171Z,12.71
2023-04-24T06:51:26.964Z,12.74
2023-04-24T06:52:28.434Z,12.76
2023-04-24T06:53:29.924Z,12.75
2023-04-24T06:54:31.636Z,12.75
2023-04-24T06:55:33.128Z,12.77
2023-04-24T06:56:34.816Z,12.80
2023-04-24T06:57:36.383Z,12.81
2023-04-24T06:58:37.923Z,12.79
2023-04-24T06:59:39.512Z,12.77
2023-04-24T07:00:40.948Z,12.77
2023-04-24T07:01:42.402Z,12.76
2023-04-24T07:02:43.909Z,12.73
2023-04-24T07:03:45.827Z,12.73
2023-04-24T07:04:48.072Z,12.72
2023-04-24T07:05:49.672Z,12.73
2023-04-24T07:06:51.710Z,12.69
2023-04-24T07:07:53.536Z,12.66
2023-04-24T07:08:56.284Z,12.63
2023-04-24T07:09:57.964Z,12.63
2023-04-24T07:11:00.149Z,12.62
2023-04-24T07:12:01.771Z,12.61
2023-04-24T07:13:03.429Z,12.59
2023-04-24T07:14:04.862Z,12.57
2023-04-24T07:15:08.148Z,12.53
2023-04-24T07:16:10.140Z,12.51
2023-04-24T07:17:13.500Z,12.49
2023-04-24T07:18:15.056Z,12.46
2023-04-24T07:19:16.399Z,12.43
2023-04-24T07:20:17.978Z,12.42
2023-04-24T07:21:19.431Z,12.41
2023-04-24T07:22:21.165Z,12.41
2023-04-24T07:23:22.564Z,12.41
2023-04-24T07:24:26.783Z,12.39
2023-04-24T07:25:28.591Z,12.35
2023-04-24T07:26:31.030Z,12.31
2023-04-24T07:27:33.233Z,12.29
2023-04-24T07:28:34.704Z,12.26
2023-04-24T07:29:36.082Z,12.23
2023-04-24T07:30:37.808Z,12.21
2023-04-24T07:31:39.317Z,12.22
2023-04-24T07:32:40.819Z,12.23
2023-04-24T07:33:42.271Z,12.23
2023-04-24T07:34:43.829Z,12.25
2023-04-24T07:35:45.760Z,12.26
2023-04-24T07:36:47.662Z,12.26
2023-04-24T07:37:49.224Z,12.24
2023-04-24T07:38:50.673Z,12.24
2023-04-24T07:39:52.195Z,12.25
2023-04-24T07:40:53.896Z,12.24
2023-04-24T07:41:55.284Z,12.26
2023-04-24T07:42:56.738Z,12.27
2023-04-24T07:43:58.849Z,12.28
2023-04-24T07:45:00.383Z,12.28
2023-04-24T07:46:02.213Z,12.24
2023-04-24T07:47:03.771Z,12.18
2023-04-24T07:48:05.880Z,12.16
2023-04-24T07:49:13.690Z,12.16
2023-04-24T07:50:15.980Z,12.15
2023-04-24T07:51:17.451Z,12.12
2023-04-24T07:52:18.865Z,12.09
2023-04-24T07:53:20.378Z,12.12
2023-04-24T07:54:21.795Z,12.14
2023-04-24T07:55:24.724Z,12.12
2023-04-24T07:56:31.653Z,12.14
2023-04-24T07:57:33.123Z,12.15
2023-04-24T07:58:35.168Z,12.16
2023-04-24T07:59:36.614Z,12.17
2023-04-24T08:00:38.256Z,12.18
2023-04-24T08:01:40.404Z,12.22
2023-04-24T08:02:41.937Z,12.24
2023-04-24T08:03:44.081Z,12.25
2023-04-24T08:04:45.909Z,12.28
2023-04-24T08:05:47.668Z,12.29
2023-04-24T08:06:49.447Z,12.32
2023-04-24T08:07:50.980Z,12.38
2023-04-24T08:08:52.398Z,12.40
2023-04-24T08:09:54.184Z,12.45
2023-04-24T08:10:55.618Z,12.47
2023-04-24T08:11:57.307Z,12.54
2023-04-24T08:12:58.776Z,12.62
2023-04-24T08:14:00.166Z,12.68
2023-04-24T08:15:01.662Z,12.72
2023-04-24T08:16:03.155Z,12.73
2023-04-24T08:17:04.671Z,12.75
2023-04-24T08:18:06.285Z,12.78
2023-04-24T08:19:08.002Z,12.81
2023-04-24T08:20:13.849Z,12.84
2023-04-24T08:21:17.446Z,12.84
2023-04-24T08:22:19.312Z,12.83
2023-04-24T08:23:20.752Z,12.82
2023-04-24T08:24:22.627Z,12.82
2023-04-24T08:25:24.965Z,12.84
2023-04-24T08:26:26.498Z,12.87
2023-04-24T08:27:27.934Z,12.90
2023-04-24T08:28:29.600Z,12.92
2023-04-24T08:29:31.088Z,12.92
2023-04-24T08:30:32.554Z,12.94
2023-04-24T08:31:34.154Z,12.95
2023-04-24T08:32:36.981Z,12.96
2023-04-24T08:33:38.401Z,12.97
2023-04-24T08:34:39.815Z,12.99
2023-04-24T08:35:41.280Z,13.04
2023-04-24T08:36:47.011Z,13.11
2023-04-24T08:37:49.611Z,13.14
2023-04-24T08:38:51.071Z,13.17
2023-04-24T08:39:53.135Z,13.22
2023-04-24T08:40:55.100Z,13.27
2023-04-24T08:41:56.518Z,13.33
2023-04-24T08:42:59.810Z,13.40
2023-04-24T08:44:02.732Z,13.48
2023-04-24T08:45:04.649Z,13.57
2023-04-24T08:46:10.954Z,13.69
2023-04-24T08:47:15.873Z,13.81
2023-04-24T08:48:29.681Z,13.90
2023-04-24T08:49:33.653Z,14.01
2023-04-24T08:50:35.261Z,14.04
2023-04-24T08:51:38.097Z,14.07
2023-04-24T08:52:39.871Z,14.09
2023-04-24T08:53:42.020Z,14.12
2023-04-24T08:54:45.871Z,14.17
2023-04-24T08:55:48.787Z,14.22
2023-04-24T08:56:53.843Z,14.26
2023-04-24T08:57:56.179Z,14.28
2023-04-24T08:58:58.107Z,14.28
2023-04-24T09:00:00.730Z,14.27
2023-04-24T09:01:03.475Z,14.31
2023-04-24T09:02:05.836Z,14.36
2023-04-24T09:03:07.555Z,14.44
2023-04-24T09:04:11.361Z,14.52
2023-04-24T09:05:14.298Z,14.61
2023-04-24T09:06:18.555Z,14.69
2023-04-24T09:07:24.619Z,14.75
2023-04-24T09:08:28.388Z,14.79
2023-04-24T09:09:33.154Z,14.84
2023-04-24T09:10:35.325Z,14.83
2023-04-24T09:11:36.997Z,14.82
2023-04-24T09:12:38.453Z,14.84
2023-04-24T09:13:40.153Z,14.89
2023-04-24T09:14:45.282Z,14.88
2023-04-24T09:15:46.916Z,14.81
2023-04-24T09:16:48.814Z,14.72
2023-04-24T09:17:50.673Z,14.63
2023-04-24T09:18:52.574Z,14.60
2023-04-24T09:19:55.967Z,14.60
2023-04-24T09:21:02.876Z,14.64
2023-04-24T09:22:09.502Z,14.67
2023-04-24T09:23:16.468Z,14.67
2023-04-24T09:24:22.708Z,14.71
2023-04-24T09:25:34.755Z,14.72
2023-04-24T09:26:36.980Z,14.73
2023-04-24T09:27:46.825Z,14.73
2023-04-24T09:28:48.306Z,14.77
2023-04-24T09:29:56.972Z,14.79
2023-04-24T09:31:15.264Z,14.84
2023-04-24T09:32:22.238Z,14.90
2023-04-24T09:33:23.705Z,14.92
2023-04-24T09:34:27.273Z,14.95
2023-04-24T09:35:28.625Z,14.99
2023-04-24T09:36:37.446Z,15.04
2023-04-24T09:37:41.704Z,15.06
2023-04-24T09:38:43.197Z,15.06
2023-04-24T09:39:45.135Z,15.11
2023-04-24T09:40:46.676Z,15.15
2023-04-24T09:41:53.506Z,15.20
2023-04-24T09:43:01.403Z,15.27
2023-04-24T09:44:21.338Z,15.32
2023-04-24T09:45:28.685Z,15.38
2023-04-24T09:46:33.934Z,15.44
2023-04-24T09:47:40.222Z,15.49
2023-04-24T09:48:41.701Z,15.56
2023-04-24T09:49:44.198Z,15.63
2023-04-24T09:50:48.598Z,15.74
2023-04-24T09:51:50.137Z,15.83
2023-04-24T09:53:01.635Z,15.88
2023-04-24T09:54:05.076Z,15.99
2023-04-24T09:55:12.417Z,16.06
2023-04-24T09:56:13.943Z,16.13
2023-04-24T09:57:15.364Z,16.19
2023-04-24T09:58:16.880Z,16.26
2023-04-24T09:59:20.187Z,16.28
2023-04-24T10:00:32.870Z,16.32
2023-04-24T10:01:34.989Z,16.39
2023-04-24T10:02:36.631Z,16.46
2023-04-24T10:03:38.600Z,16.54
2023-04-24T10:04:40.344Z,16.58
2023-04-24T10:05:43.799Z,16.62
2023-04-24T10:06:46.312Z,16.66
2023-04-24T10:07:49.568Z,16.69
2023-04-24T10:08:51.735Z,16.72
2023-04-24T10:09:53.634Z,16.76
2023-04-24T10:10:55.055Z,16.81
2023-04-24T10:11:56.503Z,16.86
2023-04-24T10:12:58.070Z,16.89
2023-04-24T10:13:59.822Z,16.91
2023-04-24T10:15:02.201Z,16.92
2023-04-24T10:16:04.387Z,16.91
2023-04-24T10:17:06.598Z,16.91
2023-04-24T10:18:09.751Z,16.95
2023-04-24T10:19:13.382Z,17.02
2023-04-24T10:20:14.831Z,17.11
2023-04-24T10:21:18.354Z,17.20
2023-04-24T10:22:20.498Z,17.28
2023-04-24T10:23:22.553Z,17.37
2023-04-24T10:24:24.159Z,17.47
2023-04-24T10:25:30.666Z,17.58
2023-04-24T10:26:32.328Z,17.70
2023-04-24T10:27:35.052Z,17.79
2023-04-24T10:28:37.220Z,17.88
2023-04-24T10:29:40.505Z,17.98
2023-04-24T10:30:43.352Z,18.08
2023-04-24T10:31:48.445Z,18.16
2023-04-24T10:32:50.172Z,18.24
2023-04-24T10:33:54.224Z,18.30
2023-04-24T10:34:56.886Z,18.38
2023-04-24T10:35:59.120Z,18.48
2023-04-24T10:37:00.670Z,18.57
2023-04-24T10:38:06.928Z,18.66
2023-04-24T10:39:11.829Z,18.77
2023-04-24T10:40:18.610Z,18.85
2023-04-24T10:41:23.398Z,18.96
2023-04-24T10:42:27.733Z,19.06
2023-04-24T10:43:29.389Z,19.17
2023-04-24T10:44:37.122Z,19.23
2023-04-24T10:45:39.416Z,19.30
2023-04-24T10:46:45.785Z,19.35
2023-04-24T10:48:03.002Z,19.39
2023-04-24T10:49:08.926Z,19.45
2023-04-24T10:50:11.196Z,19.50
2023-04-24T10:51:14.399Z,19.54
2023-04-24T10:52:16.964Z,19.61
2023-04-24T10:53:27.197Z,19.70
2023-04-24T10:54:29.967Z,19.79
2023-04-24T10:56:05.990Z,19.87
2023-04-24T10:57:23.050Z,20.03
2023-04-24T10:58:38.638Z,20.14
2023-04-24T10:59:40.210Z,20.22
2023-04-24T11:00:41.967Z,20.30
2023-04-24T11:01:54.187Z,20.37
2023-04-24T11:02:56.489Z,20.43
2023-04-24T11:04:00.105Z,20.45
2023-04-24T11:05:04.323Z,20.47
2023-04-24T11:06:07.918Z,20.44
2023-04-24T11:07:10.541Z,20.44
2023-04-24T11:08:14.502Z,20.40
2023-04-24T11:09:16.898Z,20.32
2023-04-24T11:10:27.526Z,20.27
2023-04-24T11:11:30.040Z,20.25
2023-04-24T11:12:35.493Z,20.25
2023-04-24T11:14:00.281Z,20.23
2023-04-24T11:15:03.100Z,20.16
2023-04-24T11:16:26.386Z,20.08
2023-04-24T11:17:35.386Z,19.99
2023-04-24T11:18:40.757Z,19.93
2023-04-24T11:20:48.551Z,19.88
2023-04-24T11:22:02.782Z,19.90
2023-04-24T11:23:05.143Z,19.94
2023-04-24T11:24:25.931Z,19.95
2023-04-24T11:25:31.183Z,20.01
2023-04-24T11:26:38.679Z,20.05
2023-04-24T11:27:42.293Z,20.10
2023-04-24T11:28:51.000Z,20.16
2023-04-24T11:29:55.707Z,20.21
2023-04-24T11:30:57.546Z,20.26
2023-04-24T11:32:15.266Z,20.29
2023-04-24T11:33:21.041Z,20.30
2023-04-24T11:34:23.622Z,20.33
2023-04-24T11:35:25.556Z,20.35
2023-04-24T11:36:27.098Z,20.39
2023-04-24T11:37:39.960Z,20.45
2023-04-24T11:38:41.999Z,20.52
2023-04-24T11:39:43.597Z,20.55
2023-04-24T11:40:46.290Z,20.61
2023-04-24T11:41:47.980Z,20.65
2023-04-24T11:42:55.801Z,20.71
2023-04-24T11:43:58.321Z,20.77
2023-04-24T11:45:00.718Z,20.80
2023-04-24T11:46:02.617Z,20.81
2023-04-24T11:47:06.180Z,20.81
2023-04-24T11:48:07.848Z,20.90
2023-04-24T11:49:09.286Z,21.03
2023-04-24T11:50:15.531Z,21.18
2023-04-24T11:51:17.091Z,21.31
2023-04-24T11:52:20.051Z,21.41
2023-04-24T11:53:22.148Z,21.51
2023-04-24T11:54:23.617Z,21.63
2023-04-24T11:55:27.900Z,21.76
2023-04-24T11:56:29.985Z,21.88
2023-04-24T11:57:34.903Z,21.96
2023-04-24T11:58:37.269Z,22.06
2023-04-24T11:59:38.830Z,22.14
2023-04-24T12:00:40.318Z,22.19
2023-04-24T12:01:46.219Z,22.24
2023-04-24T12:02:49.160Z,22.29
2023-04-24T12:03:55.304Z,22.34
2023-04-24T12:04:57.243Z,22.35
2023-04-24T12:06:10.257Z,22.33
2023-04-24T12:07:12.238Z,22.36
2023-04-24T12:08:28.728Z,22.45
2023-04-24T12:09:47.527Z,22.59
2023-04-24T12:10:52.187Z,22.64
2023-04-24T12:11:57.697Z,22.68
2023-04-24T12:13:00.791Z,22.73
2023-04-24T12:14:12.695Z,22.75
2023-04-24T12:15:16.448Z,22.70
2023-04-24T12:16:17.970Z,22.65
2023-04-24T12:17:27.447Z,22.56
2023-04-24T12:18:31.180Z,22.48
2023-04-24T12:19:32.541Z,22.42
2023-04-24T12:20:34.074Z,22.39
2023-04-24T12:21:35.778Z,22.41
2023-04-24T12:22:57.385Z,22.44
2023-04-24T12:23:59.077Z,22.38
2023-04-24T12:25:05.812Z,22.27
2023-04-24T12:26:07.227Z,22.15
2023-04-24T12:27:20.903Z,22.07
2023-04-24T12:28:22.415Z,22.00
2023-04-24T12:29:24.989Z,21.93
2023-04-24T12:30:29.209Z,21.87
2023-04-24T12:31:32.623Z,21.79
2023-04-24T12:32:34.064Z,21.72
2023-04-24T12:33:36.251Z,21.65
2023-04-24T12:34:37.961Z,21.57
2023-04-24T12:35:41.340Z,21.51
2023-04-24T12:36:42.817Z,21.45
2023-04-24T12:37:47.103Z,21.38
2023-04-24T12:38:53.644Z,21.28
2023-04-24T12:39:59.701Z,21.19
2023-04-24T12:41:06.534Z,21.15
2023-04-24T12:42:07.936Z,21.12
2023-04-24T12:43:16.918Z,21.12
2023-04-24T12:44:18.938Z,21.14
2023-04-24T12:45:20.835Z,21.21
2023-04-24T12:46:22.792Z,21.34
2023-04-24T12:47:25.007Z,21.65
2023-04-24T12:48:27.409Z,21.86
2023-04-24T12:49:31.238Z,21.90
2023-04-24T12:50:32.826Z,21.92
2023-04-24T12:51:34.269Z,21.95
2023-04-24T12:52:35.768Z,21.96
2023-04-24T12:53:37.169Z,21.93
2023-04-24T12:54:38.584Z,21.90
2023-04-24T12:55:40.882Z,21.85
2023-04-24T12:56:42.322Z,21.79
2023-04-24T12:57:43.860Z,21.69
2023-04-24T12:58:45.315Z,21.60
2023-04-24T12:59:46.750Z,21.52
2023-04-24T13:00:49.116Z,21.42
2023-04-24T13:01:51.184Z,21.34
2023-04-24T13:02:52.808Z,21.30
2023-04-24T13:03:54.618Z,21.27
2023-04-24T13:04:56.206Z,21.21
2023-04-24T13:05:57.764Z,21.13
2023-04-24T13:06:59.141Z,21.05
2023-04-24T13:08:00.648Z,20.98
2023-04-24T13:09:02.231Z,20.93
2023-04-24T13:10:04.011Z,20.86
2023-04-24T13:11:05.636Z,20.81
2023-04-24T13:12:08.149Z,20.78
2023-04-24T13:13:09.702Z,20.78
2023-04-24T13:14:11.058Z,20.77
2023-04-24T13:15:12.849Z,20.77
2023-04-24T13:16:14.371Z,20.77
2023-04-24T13:17:15.819Z,20.76
2023-04-24T13:18:17.687Z,20.76
2023-04-24T13:19:19.215Z,20.76
2023-04-24T13:20:20.719Z,20.75
2023-04-24T13:21:22.107Z,20.74
2023-04-24T13:22:23.569Z,20.75
2023-04-24T13:23:25.123Z,20.78
2023-04-24T13:24:26.659Z,20.85
2023-04-24T13:25:28.499Z,20.98
2023-04-24T13:26:30.064Z,21.08
2023-04-24T13:27:31.788Z,21.14
2023-04-24T13:28:33.340Z,21.22
2023-04-24T13:29:35.043Z,21.32
2023-04-24T13:30:37.649Z,21.42
2023-04-24T13:31:39.429Z,21.54
2023-04-24T13:32:41.074Z,21.62
2023-04-24T13:33:43.153Z,21.69
2023-04-24T13:34:44.953Z,21.80
2023-04-24T13:35:46.415Z,22.01
2023-04-24T13:36:48.163Z,22.27
2023-04-24T13:37:49.806Z,22.44
2023-04-24T13:38:51.447Z,22.55
2023-04-24T13:39:52.905Z,22.62
2023-04-24T13:40:55.140Z,22.66